sensor_id;sensor_type;location;lat;lon;timestamp;P1;durP1;ratioP1;P2;durP2;ratioP2
58972;SDS011;44750;52.040;7.472;2024-01-30T05:00:58;13.90;;;10.05;;
58972;SDS011;44750;52.040;7.472;2024-01-30T05:05:59;15.32;;;11.68;;
58972;SDS011;44750;52.040;7.472;2024-01-30T05:11:02;20.63;;;14.85;;
58972;SDS011;44750;52.040;7.472;2024-01-30T05:16:03;22.20;;;13.40;;
58972;SDS011;44750;52.040;7.472;2024-01-30T05:21:03;13.90;;;10.15;;
58972;SDS011;44750;52.040;7.472;2024-01-30T05:26:05;13.98;;;9.55;;
58972;SDS011;44750;52.040;7.472;2024-01-30T05:31:05;8.75;;;7.40;;
58972;SDS011;44750;52.040;7.472;2024-01-30T05:36:05;10.57;;;7.93;;
58972;SDS011;44750;52.040;7.472;2024-01-30T05:41:06;8.13;;;7.07;;
58972;SDS011;44750;52.040;7.472;2024-01-30T05:46:06;9.15;;;7.70;;
58972;SDS011;44750;52.040;7.472;2024-01-30T05:51:07;12.20;;;7.80;;
58972;SDS011;44750;52.040;7.472;2024-01-30T05:56:07;12.07;;;7.43;;
58972;SDS011;44750;52.040;7.472;2024-01-30T06:01:07;10.40;;;7.15;;
58972;SDS011;44750;52.040;7.472;2024-01-30T06:06:08;10.27;;;7.80;;
58972;SDS011;44750;52.040;7.472;2024-01-30T06:11:10;9.23;;;7.18;;
58972;SDS011;44750;52.040;7.472;2024-01-30T06:16:11;9.20;;;7.28;;
58972;SDS011;44750;52.040;7.472;2024-01-30T06:21:11;9.83;;;6.83;;
58972;SDS011;44750;52.040;7.472;2024-01-30T06:26:11;7.45;;;6.28;;
58972;SDS011;44750;52.040;7.472;2024-01-30T06:31:11;11.67;;;7.70;;
58972;SDS011;44750;52.040;7.472;2024-01-30T06:36:12;7.97;;;6.97;;
58972;SDS011;44750;52.040;7.472;2024-01-30T06:41:12;8.50;;;6.40;;
58972;SDS011;44750;52.040;7.472;2024-01-30T06:46:12;7.53;;;6.37;;
58972;SDS011;44750;52.040;7.472;2024-01-30T06:51:13;12.55;;;7.10;;
58972;SDS011;44750;52.040;7.472;2024-01-30T06:56:13;7.27;;;6.37;;
58972;SDS011;44750;52.040;7.472;2024-01-30T07:01:14;10.63;;;7.32;;
58972;SDS011;44750;52.040;7.472;2024-01-30T07:06:14;12.00;;;7.18;;
58972;SDS011;44750;52.040;7.472;2024-01-30T07:11:20;8.68;;;5.90;;
58972;SDS011;44750;52.040;7.472;2024-01-30T07:16:21;10.32;;;6.30;;
58972;SDS011;44750;52.040;7.472;2024-01-30T07:21:22;7.07;;;5.73;;
58972;SDS011;44750;52.040;7.472;2024-01-30T15:17:38;6.53;;;4.68;;
58972;SDS011;44750;52.040;7.472;2024-01-30T15:22:38;5.80;;;3.85;;
58972;SDS011;44750;52.040;7.472;2024-01-30T15:27:38;5.45;;;2.83;;
58972;SDS011;44750;52.040;7.472;2024-01-30T15:32:39;5.28;;;3.10;;
58972;SDS011;44750;52.040;7.472;2024-01-30T15:37:39;4.57;;;2.47;;
58972;SDS011;44750;52.040;7.472;2024-01-30T15:42:39;3.13;;;1.83;;
58972;SDS011;44750;52.040;7.472;2024-01-30T15:47:40;6.50;;;2.95;;
58972;SDS011;44750;52.040;7.472;2024-01-30T15:52:40;4.15;;;2.30;;
58972;SDS011;44750;52.040;7.472;2024-01-30T15:57:40;4.97;;;2.67;;
58972;SDS011;44750;52.040;7.472;2024-01-30T16:02:40;3.13;;;2.40;;
58972;SDS011;44750;52.040;7.472;2024-01-30T16:07:41;4.50;;;2.20;;
58972;SDS011;44750;52.040;7.472;2024-01-30T16:12:44;2.55;;;1.55;;
58972;SDS011;44750;52.040;7.472;2024-01-30T16:17:45;2.83;;;1.50;;
58972;SDS011;44750;52.040;7.472;2024-01-30T16:22:45;2.30;;;1.60;;
58972;SDS011;44750;52.040;7.472;2024-01-30T16:27:45;1.95;;;1.40;;
58972;SDS011;44750;52.040;7.472;2024-01-30T16:32:46;3.08;;;1.50;;
58972;SDS011;44750;52.040;7.472;2024-01-30T16:37:46;2.60;;;1.45;;
58972;SDS011;44750;52.040;7.472;2024-01-30T16:42:46;2.13;;;1.50;;
58972;SDS011;44750;52.040;7.472;2024-01-30T16:47:46;4.57;;;1.17;;
58972;SDS011;44750;52.040;7.472;2024-01-30T16:52:47;2.22;;;1.15;;
58972;SDS011;44750;52.040;7.472;2024-01-30T16:57:47;1.38;;;0.98;;
58972;SDS011;44750;52.040;7.472;2024-01-30T17:02:47;4.07;;;1.25;;
58972;SDS011;44750;52.040;7.472;2024-01-30T17:07:48;1.77;;;1.10;;
58972;SDS011;44750;52.040;7.472;2024-01-30T17:12:48;1.27;;;0.80;;
58972;SDS011;44750;52.040;7.472;2024-01-30T17:17:48;1.25;;;0.90;;
58972;SDS011;44750;52.040;7.472;2024-01-30T17:22:48;1.67;;;1.00;;
58972;SDS011;44750;52.040;7.472;2024-01-30T17:27:49;1.33;;;1.15;;
58972;SDS011;44750;52.040;7.472;2024-01-30T17:32:49;2.03;;;1.73;;
58972;SDS011;44750;52.040;7.472;2024-01-30T17:37:50;1.83;;;1.40;;
58972;SDS011;44750;52.040;7.472;2024-01-30T17:42:50;2.37;;;1.93;;
58972;SDS011;44750;52.040;7.472;2024-01-30T17:47:50;8.80;;;2.83;;
58972;SDS011;44750;52.040;7.472;2024-01-30T17:52:51;4.60;;;2.63;;
58972;SDS011;44750;52.040;7.472;2024-01-30T17:57:51;6.38;;;3.95;;
58972;SDS011;44750;52.040;7.472;2024-01-30T18:02:51;4.47;;;3.05;;
58972;SDS011;44750;52.040;7.472;2024-01-30T18:07:51;5.88;;;3.50;;
58972;SDS011;44750;52.040;7.472;2024-01-30T18:12:52;4.47;;;3.13;;
58972;SDS011;44750;52.040;7.472;2024-01-30T18:17:52;5.00;;;3.10;;
58972;SDS011;44750;52.040;7.472;2024-01-30T18:22:52;5.60;;;3.47;;
58972;SDS011;44750;52.040;7.472;2024-01-30T18:27:52;6.07;;;4.00;;
58972;SDS011;44750;52.040;7.472;2024-01-30T18:32:53;6.90;;;4.45;;
58972;SDS011;44750;52.040;7.472;2024-01-30T18:37:53;5.80;;;4.18;;
58972;SDS011;44750;52.040;7.472;2024-01-30T18:42:53;5.63;;;3.85;;
58972;SDS011;44750;52.040;7.472;2024-01-30T18:47:53;17.05;;;4.97;;
58972;SDS011;44750;52.040;7.472;2024-01-30T18:52:54;4.45;;;4.05;;
58972;SDS011;44750;52.040;7.472;2024-01-30T18:57:54;5.90;;;5.28;;
58972;SDS011;44750;52.040;7.472;2024-01-30T19:02:54;7.18;;;5.30;;
58972;SDS011;44750;52.040;7.472;2024-01-30T19:07:54;5.50;;;4.53;;
58972;SDS011;44750;52.040;7.472;2024-01-30T19:12:55;5.57;;;4.28;;
58972;SDS011;44750;52.040;7.472;2024-01-30T19:17:55;6.25;;;5.35;;
58972;SDS011;44750;52.040;7.472;2024-01-30T19:22:55;5.00;;;4.50;;
58972;SDS011;44750;52.040;7.472;2024-01-30T19:27:55;6.95;;;5.20;;
58972;SDS011;44750;52.040;7.472;2024-01-30T19:32:55;6.53;;;5.25;;
58972;SDS011;44750;52.040;7.472;2024-01-30T19:37:56;7.10;;;5.35;;
58972;SDS011;44750;52.040;7.472;2024-01-30T19:42:56;8.43;;;5.57;;
58972;SDS011;44750;52.040;7.472;2024-01-30T19:47:56;5.72;;;4.82;;
58972;SDS011;44750;52.040;7.472;2024-01-30T19:52:56;7.60;;;6.22;;
58972;SDS011;44750;52.040;7.472;2024-01-30T19:57:57;7.90;;;6.93;;
58972;SDS011;44750;52.040;7.472;2024-01-30T20:02:57;12.13;;;7.43;;
58972;SDS011;44750;52.040;7.472;2024-01-30T20:07:58;7.93;;;6.88;;
58972;SDS011;44750;52.040;7.472;2024-01-30T20:12:58;12.15;;;7.22;;
58972;SDS011;44750;52.040;7.472;2024-01-30T20:17:58;9.00;;;7.03;;
58972;SDS011;44750;52.040;7.472;2024-01-30T20:22:58;8.80;;;6.80;;
58972;SDS011;44750;52.040;7.472;2024-01-30T20:27:59;9.90;;;7.35;;
58972;SDS011;44750;52.040;7.472;2024-01-30T20:32:59;8.45;;;7.65;;
58972;SDS011;44750;52.040;7.472;2024-01-30T20:37:59;10.40;;;7.25;;
58972;SDS011;44750;52.040;7.472;2024-01-30T20:42:59;7.85;;;7.05;;
58972;SDS011;44750;52.040;7.472;2024-01-30T20:48:00;7.68;;;6.93;;
58972;SDS011;44750;52.040;7.472;2024-01-30T20:53:00;28.00;;;18.33;;
58972;SDS011;44750;52.040;7.472;2024-01-30T20:58:00;6.47;;;5.70;;
58972;SDS011;44750;52.040;7.472;2024-01-30T21:03:00;6.50;;;5.43;;
58972;SDS011;44750;52.040;7.472;2024-01-30T21:08:01;8.07;;;6.35;;
58972;SDS011;44750;52.040;7.472;2024-01-30T21:13:01;7.95;;;5.90;;
58972;SDS011;44750;52.040;7.472;2024-01-30T21:18:01;5.50;;;4.10;;
58972;SDS011;44750;52.040;7.472;2024-01-30T21:23:01;4.35;;;3.85;;
58972;SDS011;44750;52.040;7.472;2024-01-30T21:28:02;5.28;;;3.65;;
58972;SDS011;44750;52.040;7.472;2024-01-30T21:33:02;4.03;;;3.50;;
58972;SDS011;44750;52.040;7.472;2024-01-30T21:38:03;5.68;;;3.80;;
58972;SDS011;44750;52.040;7.472;2024-01-30T21:43:03;5.35;;;4.28;;
58972;SDS011;44750;52.040;7.472;2024-01-30T21:48:06;6.17;;;4.20;;
58972;SDS011;44750;52.040;7.472;2024-01-30T21:53:07;5.22;;;3.67;;
